Página principal
METAR-TAF:

METAR-TAF

Aeroportos :

Chita, Rússia

latitude: 52-05N, longitude: 113-29E, altura: 685 m

Observação actual do tempo

O boletim foi feito há 28 minutos, às 13:30 UTC
Vento 12 kt de oeste
Temperatura -13°C
Humidade 43%
Pressão 1018 hPa
Visibilidade 10 km ou mais

METAR: UIAA 171330Z AUTO 28006MPS 9999 NCD M13/M23 Q1018 RMK QFE705/0940

Hora: 22:58 (13:58 UTC)

Previsão

O boletim foi feito há 2 horas e 58 minutos, às 11:00 UTC
Previsão válida de 17 às 12 UTC a 18 às 12 UTC
Vento 10 kt de oeste com rajadas de 23 kt
Visibilidade 10 km ou mais
Temporariamente
de 17 às 12 UTC a 18 às 03 UTC
Vento 6 kt de su-sudoeste

TAF: UIAA 171100Z 1712/1812 26005G12MPS 9999 NSC TEMPO 1712/1803 20003MPS

Observações e previsões do tempo de mais de 4000 aeroportos (mensagens METAR e TAF).

As estações disponíveis são os pontos amarelos e vermelhos sobre o mapa.

Mova o rato sobre o mapa para ver o nome da estação.

Depois clique no ponto para visualizar as observações e previsões meteorológicas.

Para alterar o mapa : clique nos botões verdes com uma cruz preta para aumentar o zoom; no botão verde com uma pitada de zoom; ou nas setas verdes para mapas adjacentes.


METAR-TAF: